createdAt,value
2018-12-16T00:01:08.023Z,14.07
2018-12-16T00:03:44.355Z,15.10
2018-12-16T00:06:17.159Z,14.07
2018-12-16T00:08:50.000Z,13.53
2018-12-16T00:11:23.096Z,15.33
2018-12-16T00:13:53.905Z,14.83
2018-12-16T00:16:26.320Z,15.30
2018-12-16T00:18:59.332Z,14.83
2018-12-16T00:21:32.131Z,13.80
2018-12-16T00:24:05.234Z,15.60
2018-12-16T00:26:53.350Z,15.90
2018-12-16T00:29:26.219Z,14.83
2018-12-16T00:31:59.275Z,14.87
2018-12-16T00:34:31.978Z,14.80
2018-12-16T00:37:05.117Z,13.73
2018-12-16T00:39:38.210Z,16.07
2018-12-16T00:42:10.334Z,14.00
2018-12-16T00:44:42.541Z,14.40
2018-12-16T00:47:18.803Z,15.13
2018-12-16T00:49:54.990Z,14.83
2018-12-16T00:52:27.914Z,14.70
2018-12-16T00:55:00.881Z,15.17
2018-12-16T00:57:35.279Z,16.93
2018-12-16T01:00:12.553Z,13.37
2018-12-16T01:02:45.132Z,12.87
2018-12-16T01:05:18.147Z,15.00
2018-12-16T01:07:50.995Z,13.90
2018-12-16T01:10:23.676Z,16.07
2018-12-16T01:12:56.936Z,12.73
2018-12-16T01:15:29.965Z,12.90
2018-12-16T01:18:03.145Z,13.97
2018-12-16T01:20:36.123Z,14.83
2018-12-16T01:23:09.277Z,13.00
2018-12-16T01:25:42.155Z,14.10
2018-12-16T01:28:15.289Z,12.67
2018-12-16T01:30:48.145Z,13.20
2018-12-16T01:33:21.083Z,14.10
2018-12-16T01:35:53.942Z,15.40
2018-12-16T01:38:26.107Z,14.23
2018-12-16T01:41:05.337Z,14.17
2018-12-16T01:43:38.263Z,12.60
2018-12-16T01:46:11.107Z,16.87
2018-12-16T01:48:45.192Z,16.90
2018-12-16T01:51:18.133Z,14.40
2018-12-16T01:53:51.121Z,15.87
2018-12-16T01:56:31.175Z,12.93
2018-12-16T01:59:03.397Z,14.10
2018-12-16T02:01:38.514Z,15.50
2018-12-16T02:04:08.882Z,15.60
2018-12-16T02:06:41.839Z,13.23
2018-12-16T02:09:18.858Z,14.90
2018-12-16T02:11:51.747Z,14.87
2018-12-16T02:14:24.080Z,12.83
2018-12-16T02:16:57.031Z,14.67
2018-12-16T02:19:29.871Z,15.47
2018-12-16T02:22:02.812Z,13.30
2018-12-16T02:24:35.664Z,12.97
2018-12-16T02:27:07.724Z,13.83
2018-12-16T02:29:44.614Z,13.77
2018-12-16T02:32:15.576Z,13.37
2018-12-16T02:34:48.615Z,13.20
2018-12-16T02:37:22.008Z,14.60
2018-12-16T02:39:54.740Z,14.77
2018-12-16T02:42:27.429Z,13.57
2018-12-16T02:45:00.313Z,14.07
2018-12-16T02:47:36.520Z,14.40
2018-12-16T02:50:09.719Z,11.93
2018-12-16T02:52:42.974Z,12.43
2018-12-16T02:55:15.461Z,15.03
2018-12-16T02:57:48.584Z,14.53
2018-12-16T03:00:21.514Z,12.77
2018-12-16T03:02:58.433Z,14.73
2018-12-16T03:05:35.344Z,16.50
2018-12-16T03:08:06.507Z,14.97
2018-12-16T03:10:39.334Z,12.30
2018-12-16T03:13:12.144Z,16.00
2018-12-16T03:15:44.276Z,13.97
2018-12-16T03:18:17.309Z,13.60
2018-12-16T03:20:50.325Z,14.70
2018-12-16T03:23:23.267Z,11.97
2018-12-16T03:25:56.240Z,14.93
2018-12-16T03:28:27.171Z,14.47
2018-12-16T03:43:28.818Z,14.27
2018-12-16T03:46:05.473Z,15.17
2018-12-16T03:48:38.039Z,12.73
2018-12-16T03:51:10.738Z,13.43
2018-12-16T03:53:43.099Z,12.63
2018-12-16T03:56:16.036Z,15.90
2018-12-16T03:59:00.049Z,11.53
2018-12-16T04:01:32.626Z,14.03
2018-12-16T04:04:09.377Z,15.77
2018-12-16T04:06:43.366Z,15.20
2018-12-16T04:09:15.978Z,10.97
2018-12-16T04:11:48.195Z,12.60
2018-12-16T04:14:25.115Z,14.80
2018-12-16T04:16:58.129Z,13.90
2018-12-16T04:19:29.155Z,15.07
2018-12-16T04:22:02.076Z,15.27
2018-12-16T04:24:34.588Z,14.30
2018-12-16T04:27:07.634Z,13.40
2018-12-16T04:29:40.535Z,12.83
2018-12-16T04:32:18.374Z,14.13
2018-12-16T04:34:51.318Z,13.10
2018-12-16T04:37:24.288Z,14.67
2018-12-16T04:39:57.328Z,14.60
2018-12-16T04:42:30.252Z,15.93
2018-12-16T04:45:03.175Z,17.07
2018-12-16T04:47:36.219Z,16.60
2018-12-16T04:50:09.223Z,15.70
2018-12-16T04:52:46.103Z,15.43
2018-12-16T04:55:18.983Z,16.50
2018-12-16T04:57:51.934Z,17.20
2018-12-16T05:00:28.728Z,16.87
2018-12-16T05:03:01.854Z,12.57
2018-12-16T05:05:34.771Z,18.47
2018-12-16T05:08:07.702Z,18.60
2018-12-16T05:10:40.812Z,15.07
2018-12-16T05:13:17.768Z,15.77
2018-12-16T05:15:50.490Z,15.40
2018-12-16T05:18:23.499Z,14.30
2018-12-16T05:21:00.442Z,18.00
2018-12-16T05:23:33.479Z,18.33
2018-12-16T05:26:10.315Z,17.27
2018-12-16T05:28:43.213Z,16.90
2018-12-16T05:31:15.971Z,15.00
2018-12-16T05:33:48.483Z,14.40
2018-12-16T05:36:21.206Z,17.90
2018-12-16T05:38:58.269Z,17.87
2018-12-16T05:41:31.195Z,17.13
2018-12-16T05:44:48.542Z,17.67
2018-12-16T05:47:21.084Z,17.37
2018-12-16T05:50:14.354Z,17.87
2018-12-16T05:52:50.466Z,16.40
2018-12-16T05:55:57.555Z,15.60
2018-12-16T05:58:37.161Z,16.07
2018-12-16T06:01:33.987Z,18.03
2018-12-16T06:04:16.195Z,17.47
2018-12-16T06:06:48.531Z,16.67
2018-12-16T06:09:17.539Z,17.37
2018-12-16T06:12:30.367Z,17.97
2018-12-16T06:15:06.811Z,19.57
2018-12-16T06:17:35.840Z,17.67
2018-12-16T06:20:05.253Z,18.50
2018-12-16T06:22:34.276Z,17.93
2018-12-16T06:25:03.445Z,19.43
2018-12-16T06:27:39.671Z,18.67
2018-12-16T06:30:14.503Z,17.03
2018-12-16T06:32:43.488Z,18.07
2018-12-16T06:35:19.699Z,20.03
2018-12-16T06:37:48.708Z,18.13
2018-12-16T06:40:17.854Z,17.37
2018-12-16T06:42:46.997Z,19.40
2018-12-16T06:45:16.159Z,19.90
2018-12-16T06:50:10.857Z,18.27
2018-12-16T06:52:42.387Z,16.67
2018-12-16T06:55:12.062Z,19.90
2018-12-16T06:57:41.119Z,19.17
2018-12-16T07:00:14.120Z,19.37
2018-12-16T07:02:43.080Z,16.13
2018-12-16T07:05:12.030Z,16.03
2018-12-16T07:07:41.473Z,19.03
2018-12-16T07:10:10.413Z,20.77
2018-12-16T07:12:39.401Z,18.57
2018-12-16T07:15:08.400Z,17.37
2018-12-16T07:17:38.336Z,20.37
2018-12-16T07:20:07.844Z,19.57
2018-12-16T07:22:37.255Z,20.03
2018-12-16T07:25:06.442Z,18.50
2018-12-16T07:27:35.502Z,18.17
2018-12-16T07:30:04.616Z,21.40
2018-12-16T07:32:33.833Z,18.30
2018-12-16T07:35:02.828Z,18.13
2018-12-16T07:37:31.850Z,17.27
2018-12-16T07:40:00.921Z,18.47
2018-12-16T07:42:29.846Z,19.70
2018-12-16T07:44:58.981Z,18.60
2018-12-16T07:47:28.141Z,22.07
2018-12-16T07:49:57.137Z,20.87
2018-12-16T07:52:26.129Z,20.77
2018-12-16T07:54:55.118Z,19.93
2018-12-16T07:57:24.066Z,21.80
2018-12-16T07:59:53.026Z,19.53
2018-12-16T08:02:22.172Z,19.47
2018-12-16T08:04:51.239Z,20.97
2018-12-16T08:07:20.152Z,18.43
2018-12-16T08:09:56.889Z,24.17
2018-12-16T08:12:26.120Z,18.67
2018-12-16T08:14:55.129Z,21.70
2018-12-16T08:17:24.317Z,21.33
2018-12-16T08:19:53.285Z,20.03
2018-12-16T08:22:22.342Z,22.77
2018-12-16T08:25:33.063Z,22.53
2018-12-16T08:28:02.205Z,21.17
2018-12-16T08:30:31.113Z,19.40
2018-12-16T08:36:23.697Z,20.23
2018-12-16T08:38:52.860Z,22.77
2018-12-16T08:41:23.070Z,18.50
2018-12-16T08:43:52.297Z,20.87
2018-12-16T08:46:49.937Z,21.50
2018-12-16T08:49:18.998Z,19.80
2018-12-16T08:51:49.089Z,20.50
2018-12-16T08:54:18.264Z,21.17
2018-12-16T08:56:47.211Z,18.10
2018-12-16T09:06:02.170Z,18.23
2018-12-16T09:08:31.274Z,20.90
2018-12-16T09:11:29.356Z,20.50
2018-12-16T09:14:02.298Z,19.90
2018-12-16T09:16:39.125Z,20.20
2018-12-16T09:19:11.894Z,21.30
2018-12-16T09:22:07.041Z,22.07
2018-12-16T09:24:37.369Z,19.37
2018-12-16T09:27:06.889Z,18.37
2018-12-16T09:29:35.879Z,21.83
2018-12-16T09:32:05.189Z,20.50
2018-12-16T09:34:34.130Z,22.97
2018-12-16T09:37:03.122Z,21.37
2018-12-16T09:39:32.240Z,21.67
2018-12-16T09:42:01.382Z,22.17
2018-12-16T09:44:30.401Z,19.27
2018-12-16T09:46:59.494Z,19.00
2018-12-16T09:49:28.425Z,20.40
2018-12-16T09:51:57.317Z,23.63
2018-12-16T09:54:26.409Z,23.73
2018-12-16T09:56:55.486Z,19.77
2018-12-16T09:59:24.642Z,20.70
2018-12-16T10:01:53.681Z,23.00
2018-12-16T10:04:22.648Z,23.30
2018-12-16T10:06:51.697Z,26.57
2018-12-16T10:09:20.674Z,22.83
2018-12-16T10:11:49.724Z,22.37
2018-12-16T10:14:18.605Z,22.17
2018-12-16T10:16:47.641Z,24.37
2018-12-16T10:19:16.589Z,21.70
2018-12-16T10:21:47.534Z,21.63
2018-12-16T10:24:16.421Z,21.40
2018-12-16T10:26:46.046Z,23.20
2018-12-16T10:29:15.252Z,23.93
2018-12-16T10:31:47.959Z,25.20
2018-12-16T10:34:16.833Z,24.50
2018-12-16T10:36:45.780Z,20.90
2018-12-16T10:39:14.762Z,23.20
2018-12-16T10:41:43.896Z,24.90
2018-12-16T10:44:20.210Z,23.40
2018-12-16T10:46:49.263Z,25.80
2018-12-16T10:49:18.261Z,21.27
2018-12-16T10:54:36.744Z,25.83
2018-12-16T10:57:13.344Z,29.67
2018-12-16T10:59:50.063Z,25.37
2018-12-16T11:02:27.098Z,24.07
2018-12-16T11:05:03.449Z,25.33
2018-12-16T11:07:36.423Z,25.47
2018-12-16T11:10:07.585Z,21.73
2018-12-16T11:12:40.413Z,23.37
2018-12-16T11:15:12.835Z,23.97
2018-12-16T11:17:43.983Z,21.93
2018-12-16T11:20:20.670Z,20.37
2018-12-16T11:23:11.082Z,25.17
2018-12-16T11:25:50.485Z,21.50
2018-12-16T11:28:23.589Z,29.90
2018-12-16T11:31:05.377Z,23.93
2018-12-16T11:33:35.374Z,22.50
2018-12-16T11:36:11.560Z,26.10
2018-12-16T11:38:40.635Z,25.63
2018-12-16T11:41:13.178Z,22.87
2018-12-16T11:43:49.837Z,21.53
2018-12-16T11:46:27.465Z,24.47
2018-12-16T11:49:04.488Z,23.63
2018-12-16T11:51:37.725Z,21.60
2018-12-16T12:09:19.889Z,25.07
2018-12-16T12:11:52.493Z,21.33
2018-12-16T12:14:25.394Z,24.30
2018-12-16T12:17:07.473Z,20.47
2018-12-16T12:19:43.856Z,22.30
2018-12-16T12:25:40.638Z,26.80
2018-12-16T12:28:10.101Z,28.80
2018-12-16T12:30:39.447Z,27.97
2018-12-16T12:33:16.727Z,24.87
2018-12-16T12:35:49.496Z,24.23
2018-12-16T12:38:35.463Z,26.27
2018-12-16T12:41:12.076Z,26.70
2018-12-16T12:43:44.509Z,26.20
2018-12-16T12:46:17.481Z,25.50
2018-12-16T12:48:50.577Z,24.83
2018-12-16T12:51:23.413Z,25.50
2018-12-16T12:53:56.261Z,25.20
2018-12-16T12:56:29.232Z,27.90
2018-12-16T12:59:02.305Z,24.17
2018-12-16T13:01:32.526Z,24.00
2018-12-16T13:04:03.796Z,27.30
2018-12-16T13:06:40.421Z,26.40
2018-12-16T13:09:17.637Z,26.57
2018-12-16T13:14:20.182Z,25.80
2018-12-16T13:16:56.816Z,28.00
2018-12-16T13:19:29.666Z,22.57
2018-12-16T13:21:59.140Z,24.00
2018-12-16T13:24:28.409Z,25.50
2018-12-16T13:27:18.337Z,24.77
2018-12-16T13:29:47.618Z,23.50
2018-12-16T13:32:27.621Z,24.53
2018-12-16T13:35:04.349Z,25.57
2018-12-16T13:37:41.321Z,23.60
2018-12-16T13:40:14.253Z,25.73
2018-12-16T13:42:51.165Z,25.67
2018-12-16T13:45:24.185Z,32.33
2018-12-16T13:51:44.621Z,25.30
2018-12-16T13:54:17.969Z,29.97
2018-12-16T13:56:54.875Z,27.43
2018-12-16T13:59:31.869Z,25.37
2018-12-16T14:02:08.859Z,26.10
2018-12-16T14:04:45.797Z,26.80
2018-12-16T14:07:18.811Z,27.80
2018-12-16T14:09:51.798Z,28.20
2018-12-16T14:12:25.005Z,26.60
2018-12-16T14:15:01.573Z,25.77
2018-12-16T14:17:34.661Z,23.80
2018-12-16T14:20:08.934Z,25.50
2018-12-16T14:22:41.685Z,27.47
2018-12-16T14:25:18.581Z,25.17
2018-12-16T14:27:51.612Z,24.53
2018-12-16T14:30:24.593Z,22.53
2018-12-16T14:32:57.496Z,25.80
2018-12-16T14:35:34.475Z,24.93
2018-12-16T14:38:08.145Z,23.77
2018-12-16T14:40:40.913Z,25.33
2018-12-16T14:43:13.837Z,22.90
2018-12-16T14:45:46.769Z,25.03
2018-12-16T14:48:19.780Z,25.33
2018-12-16T14:50:56.636Z,25.97
2018-12-16T14:53:33.629Z,25.87
2018-12-16T14:56:06.675Z,26.27
2018-12-16T14:58:39.761Z,26.40
2018-12-16T15:01:12.497Z,25.10
2018-12-16T15:03:45.715Z,26.63
2018-12-16T15:06:18.901Z,27.70
2018-12-16T15:08:51.662Z,27.87
2018-12-16T15:11:24.317Z,24.90
2018-12-16T15:14:01.234Z,32.30
2018-12-16T15:16:32.390Z,29.30
2018-12-16T15:19:05.362Z,26.17
2018-12-16T15:21:36.277Z,24.77
2018-12-16T15:24:09.197Z,25.47
2018-12-16T15:26:41.968Z,26.80
2018-12-16T15:29:14.711Z,26.63
2018-12-16T15:31:47.530Z,29.40
2018-12-16T15:34:20.789Z,25.90
2018-12-16T15:36:54.797Z,31.87
2018-12-16T15:39:28.016Z,28.73
2018-12-16T15:42:05.449Z,28.40
2018-12-16T15:44:38.983Z,30.13
2018-12-16T15:47:11.789Z,27.07
2018-12-16T15:49:42.600Z,28.77
2018-12-16T15:52:15.578Z,29.53
2018-12-16T15:54:45.081Z,29.07
2018-12-16T15:57:18.006Z,31.80
2018-12-16T15:59:51.046Z,28.60
2018-12-16T16:02:23.995Z,31.23
2018-12-16T16:04:53.437Z,28.77
2018-12-16T16:07:31.020Z,31.20
2018-12-16T16:10:04.623Z,30.67
2018-12-16T16:12:45.055Z,29.63
2018-12-16T16:15:17.720Z,30.60
2018-12-16T16:17:47.295Z,28.90
2018-12-16T16:21:06.184Z,31.57
2018-12-16T16:23:35.663Z,31.30
2018-12-16T16:26:08.249Z,32.47
2018-12-16T16:28:45.856Z,31.50
2018-12-16T16:31:18.684Z,25.90
2018-12-16T16:33:48.164Z,32.80
2018-12-16T16:36:44.409Z,32.37
2018-12-16T16:39:17.805Z,32.50
2018-12-16T16:41:50.303Z,29.83
2018-12-16T16:44:28.446Z,34.50
2018-12-16T16:47:05.278Z,30.20
2018-12-16T16:49:38.046Z,31.30
2018-12-16T16:52:10.912Z,32.70
2018-12-16T16:54:44.013Z,29.90
2018-12-16T16:57:16.882Z,32.30
2018-12-16T16:59:49.601Z,29.03
2018-12-16T17:02:22.523Z,32.97
2018-12-16T17:04:55.362Z,31.37
2018-12-16T17:07:26.666Z,33.53
2018-12-16T17:09:59.636Z,34.27
2018-12-16T17:12:36.322Z,32.70
2018-12-16T17:15:13.134Z,29.53
2018-12-16T17:17:49.633Z,33.37
2018-12-16T17:20:26.780Z,31.07
2018-12-16T17:22:59.825Z,31.30
2018-12-16T17:25:36.857Z,30.87
2018-12-16T17:28:09.737Z,32.50
2018-12-16T17:31:08.943Z,34.10
2018-12-16T17:33:42.022Z,31.60
2018-12-16T17:36:19.044Z,31.77
2018-12-16T17:38:52.233Z,35.43
2018-12-16T17:41:25.046Z,30.43
2018-12-16T17:43:57.955Z,33.40
2018-12-16T17:46:31.272Z,31.70
2018-12-16T17:49:15.587Z,33.57
2018-12-16T17:51:54.352Z,30.07
2018-12-16T17:54:30.806Z,32.63
2018-12-16T17:57:03.858Z,32.80
2018-12-16T17:59:40.726Z,32.60
2018-12-16T18:02:17.477Z,33.20
2018-12-16T18:04:50.613Z,33.87
2018-12-16T18:07:23.573Z,32.10
2018-12-16T18:10:00.256Z,32.43
2018-12-16T18:12:37.357Z,32.27
2018-12-16T18:15:13.865Z,33.70
2018-12-16T18:17:44.654Z,31.30
2018-12-16T18:22:47.273Z,35.40
2018-12-16T18:25:20.357Z,32.70
2018-12-16T18:27:53.578Z,37.47
2018-12-16T18:30:26.349Z,35.60
2018-12-16T18:33:03.689Z,39.40
2018-12-16T18:35:36.426Z,34.27
2018-12-16T18:38:13.217Z,35.30
2018-12-16T18:40:46.456Z,34.77
2018-12-16T18:43:24.116Z,34.50
2018-12-16T18:46:00.906Z,39.67
2018-12-16T18:48:37.846Z,40.47
2018-12-16T18:51:10.462Z,40.10
2018-12-16T18:53:47.336Z,40.53
2018-12-16T18:56:33.313Z,37.00
2018-12-16T18:59:05.901Z,33.07
2018-12-16T19:01:42.688Z,34.87
2018-12-16T19:04:21.526Z,33.50
2018-12-16T19:06:58.673Z,38.27
2018-12-16T19:09:28.196Z,32.10
2018-12-16T19:12:05.425Z,37.93
2018-12-16T19:14:35.279Z,34.10
2018-12-16T19:17:11.916Z,40.60
2018-12-16T19:19:45.037Z,38.47
2018-12-16T19:22:34.801Z,37.23
2018-12-16T19:31:24.841Z,35.87
2018-12-16T19:34:02.030Z,39.07
2018-12-16T19:36:31.415Z,31.70
2018-12-16T19:39:34.477Z,36.43
2018-12-16T19:42:30.438Z,30.77
2018-12-16T19:45:07.969Z,32.03
2018-12-16T19:48:05.559Z,32.93
2018-12-16T19:51:25.029Z,34.13
2018-12-16T19:54:20.675Z,31.67
2018-12-16T19:57:05.241Z,34.80
2018-12-16T19:59:34.489Z,33.77
2018-12-16T20:02:03.804Z,36.20
2018-12-16T20:04:38.250Z,33.20
2018-12-16T20:07:07.749Z,39.57
2018-12-16T20:09:37.713Z,35.07
2018-12-16T20:12:07.203Z,36.00
2018-12-16T20:14:40.050Z,34.87
2018-12-16T20:20:32.988Z,34.13
2018-12-16T20:23:02.436Z,38.80
2018-12-16T20:28:00.582Z,38.07
2018-12-16T20:30:53.861Z,37.53
2018-12-16T20:33:26.764Z,35.97
2018-12-16T20:36:06.153Z,36.07
2018-12-16T20:39:02.993Z,33.80
2018-12-16T20:41:32.457Z,34.30
2018-12-16T20:44:02.802Z,38.80
2018-12-16T20:49:56.617Z,32.67
2018-12-16T20:52:26.050Z,34.40
2018-12-16T20:54:55.552Z,40.80
2018-12-16T20:57:24.925Z,38.67
2018-12-16T20:59:54.865Z,37.63
2018-12-16T21:02:24.368Z,43.23
2018-12-16T21:05:07.355Z,38.07
2018-12-16T21:08:00.901Z,36.03
2018-12-16T21:10:30.352Z,34.67
2018-12-16T21:16:29.597Z,32.57
2018-12-16T21:18:58.940Z,37.33
2018-12-16T21:21:28.386Z,36.00
2018-12-16T21:23:58.161Z,37.00
2018-12-16T21:26:27.575Z,37.47
2018-12-16T21:28:57.273Z,37.17
2018-12-16T21:31:26.712Z,38.60
2018-12-16T21:33:56.061Z,40.90
2018-12-16T21:36:25.493Z,39.63
2018-12-16T21:38:54.839Z,41.57
2018-12-16T21:42:02.554Z,44.37
2018-12-16T21:45:11.076Z,39.47
2018-12-16T21:47:47.706Z,37.70
2018-12-16T21:54:14.096Z,41.80
2018-12-16T21:56:51.648Z,42.80
2018-12-16T21:59:24.681Z,40.97
2018-12-16T22:01:54.076Z,44.50
2018-12-16T22:04:24.889Z,44.10
2018-12-16T22:06:54.309Z,43.70
2018-12-16T22:09:38.530Z,41.33
2018-12-16T22:12:33.696Z,39.70
2018-12-16T22:15:07.096Z,39.40
2018-12-16T22:17:36.509Z,38.30
2018-12-16T22:20:20.449Z,42.57
2018-12-16T22:22:56.795Z,35.13
2018-12-16T22:25:29.839Z,43.93
2018-12-16T22:30:35.441Z,41.60
2018-12-16T22:33:12.317Z,38.57
2018-12-16T22:35:41.389Z,41.33
2018-12-16T22:38:23.082Z,40.00
2018-12-16T22:40:55.497Z,38.37
2018-12-16T22:43:24.396Z,36.27
2018-12-16T22:46:00.547Z,41.27
2018-12-16T22:48:33.727Z,35.57
2018-12-16T22:51:10.358Z,38.53
2018-12-16T22:53:39.363Z,35.40
2018-12-16T22:56:11.868Z,36.37
2018-12-16T22:58:41.295Z,39.63
2018-12-16T23:01:23.448Z,38.27
2018-12-16T23:04:05.485Z,39.07
2018-12-16T23:06:37.499Z,40.77
2018-12-16T23:09:07.702Z,34.23
2018-12-16T23:11:36.730Z,33.97
2018-12-16T23:14:13.544Z,36.30
2018-12-16T23:17:16.907Z,31.97
2018-12-16T23:20:07.357Z,31.80
2018-12-16T23:22:49.197Z,32.57
2018-12-16T23:25:25.761Z,34.70
2018-12-16T23:27:54.758Z,35.17
2018-12-16T23:30:23.625Z,32.17
2018-12-16T23:35:21.924Z,35.43
2018-12-16T23:38:01.691Z,38.67
2018-12-16T23:40:38.495Z,39.10
2018-12-16T23:43:15.182Z,38.03
2018-12-16T23:45:48.009Z,39.57
2018-12-16T23:48:20.965Z,37.30
2018-12-16T23:51:03.053Z,40.30
2018-12-16T23:53:55.642Z,35.57
2018-12-16T23:56:32.245Z,35.37
2018-12-16T23:59:09.214Z,38.03
